Time;durP1;ratioP1;P1;durP2;ratioP2;P2;SDS_P1;SDS_P2;PMS_P1;PMS_P2;Temp;Humidity;BMP_temperature;BMP_pressure;BME280_temperature;BME280_humidity;BME280_pressure;Samples;Min_cycle;Max_cycle;Signal;HPM_P1;HPM_P2
2022/06/08 00:01:58;;;;;;;10.13;8.77;;;15.90;99.90;;;;;;5075304;28;20293;-75
2022/06/08 00:04:23;;;;;;;11.10;8.20;;;15.90;99.90;;;;;;5056942;28;20202;-75
2022/06/08 00:06:51;;;;;;;9.63;8.27;;;15.90;99.90;;;;;;5075085;28;20637;-75
2022/06/08 00:09:17;;;;;;;9.10;8.20;;;16.00;99.90;;;;;;5074756;28;20190;-75
2022/06/08 00:11:43;;;;;;;8.13;6.57;;;15.90;99.90;;;;;;5074976;28;20175;-75
2022/06/08 00:14:08;;;;;;;5.07;4.50;;;15.90;99.90;;;;;;5074593;28;20703;-76
2022/06/08 00:16:34;;;;;;;3.93;3.60;;;15.90;99.90;;;;;;5074705;28;20557;-75
2022/06/08 00:18:59;;;;;;;5.07;4.10;;;15.90;99.90;;;;;;5074658;28;20167;-75
2022/06/08 00:21:25;;;;;;;4.80;4.10;;;15.80;99.90;;;;;;5056088;28;20163;-75
2022/06/08 00:23:51;;;;;;;4.70;4.23;;;15.80;99.90;;;;;;5074506;28;20191;-75
2022/06/08 00:26:17;;;;;;;5.37;4.67;;;15.70;99.90;;;;;;5056677;28;20168;-75
2022/06/08 00:28:43;;;;;;;7.30;5.77;;;15.70;99.90;;;;;;5074758;28;20203;-75
2022/06/08 00:31:08;;;;;;;5.80;5.20;;;15.60;99.90;;;;;;5074466;28;20246;-75
2022/06/08 00:33:34;;;;;;;6.17;5.50;;;15.60;99.90;;;;;;5074370;28;20667;-75
2022/06/08 00:36:00;;;;;;;7.60;5.33;;;15.50;99.90;;;;;;5056471;28;20175;-75
2022/06/08 00:38:25;;;;;;;7.40;5.20;;;15.50;99.90;;;;;;5074465;28;20206;-75
2022/06/08 00:41:06;;;;;;;8.40;5.07;;;15.40;99.90;;;;;;5074243;28;20227;-75
2022/06/08 00:43:33;;;;;;;7.30;5.67;;;15.40;99.90;;;;;;5074370;28;20262;-75
2022/06/08 00:45:59;;;;;;;7.23;6.10;;;15.50;99.90;;;;;;5074118;28;20171;-76
2022/06/08 00:48:29;;;;;;;7.00;5.63;;;15.30;99.90;;;;;;5074111;28;20558;-76
2022/06/08 00:50:57;;;;;;;6.80;5.97;;;15.30;99.90;;;;;;5056117;28;20185;-75
2022/06/08 00:53:30;;;;;;;7.83;5.63;;;15.20;99.90;;;;;;5073906;28;20196;-76
2022/06/08 00:55:58;;;;;;;6.87;6.10;;;15.20;99.90;;;;;;5056315;28;20240;-75
2022/06/08 00:58:28;;;;;;;7.87;6.20;;;15.30;99.90;;;;;;5055830;28;20191;-75
2022/06/08 01:00:53;;;;;;;6.77;6.07;;;15.20;99.90;;;;;;5073852;28;20644;-75
2022/06/08 01:03:19;;;;;;;7.57;6.80;;;15.30;99.90;;;;;;5073966;28;20171;-75
2022/06/08 01:06:01;;;;;;;7.23;6.50;;;15.30;99.90;;;;;;5073732;28;20544;-76
2022/06/08 01:08:37;;;;;;;7.07;6.00;;;15.20;99.90;;;;;;5073695;28;20253;-75
2022/06/08 01:11:34;;;;;;;10.93;6.03;;;15.20;99.90;;;;;;5074069;28;20239;-76
2022/06/08 01:14:03;;;;;;;9.80;6.07;;;15.10;99.90;;;;;;5039501;28;20229;-78
2022/06/08 01:16:31;;;;;;;7.60;6.00;;;15.10;99.90;;;;;;5073634;28;20203;-76
2022/06/08 01:18:56;;;;;;;7.27;5.83;;;15.10;99.90;;;;;;5091032;22;20190;-91
2022/06/08 01:21:22;;;;;;;7.83;6.23;;;15.20;99.90;;;;;;5099311;28;20161;-91
2022/06/08 01:23:54;;;;;;;11.23;6.20;;;15.00;99.90;;;;;;5098987;28;20219;-91
2022/06/08 01:26:19;;;;;;;8.27;6.07;;;15.00;99.90;;;;;;5099419;28;20131;-91
2022/06/08 01:29:01;;;;;;;8.90;6.00;;;15.00;99.90;;;;;;5099412;28;20142;-91
2022/06/08 01:31:59;;;;;;;10.70;6.57;;;14.80;99.90;;;;;;5099808;28;20127;-91
2022/06/08 01:34:54;;;;;;;8.43;6.03;;;15.00;99.90;;;;;;5097410;28;20135;-92
2022/06/08 01:37:38;;;;;;;8.23;6.30;;;14.90;99.90;;;;;;5099236;28;20171;-91
2022/06/08 01:40:22;;;;;;;7.07;5.87;;;14.80;99.90;;;;;;5099294;28;20158;-91
2022/06/08 01:43:07;;;;;;;7.57;6.03;;;14.70;99.90;;;;;;5099217;28;20142;-91
2022/06/08 01:45:49;;;;;;;9.80;6.67;;;14.70;99.90;;;;;;5098338;28;20194;-91
2022/06/08 01:48:38;;;;;;;6.43;5.63;;;14.70;99.90;;;;;;5098012;28;20155;-91
2022/06/08 01:51:30;;;;;;;9.07;5.97;;;14.70;99.90;;;;;;5097629;28;20175;-91
2022/06/08 01:53:58;;;;;;;7.07;5.33;;;14.60;99.90;;;;;;5097772;28;20227;-92
2022/06/08 01:56:51;;;;;;;8.50;5.47;;;14.60;99.90;;;;;;5098201;28;20157;-92
2022/06/08 01:59:58;;;;;;;6.53;5.60;;;15.50;99.90;;;;;;5097863;28;20155;-92
2022/06/08 02:02:29;;;;;;;7.60;4.83;;;14.60;99.90;;;;;;5084451;28;20171;-92
2022/06/08 02:04:59;;;;;;;5.10;4.50;;;14.50;99.90;;;;;;5098254;28;20159;-92
2022/06/08 02:07:44;;;;;;;6.23;5.50;;;14.50;99.90;;;;;;5097531;28;20177;-91
2022/06/08 02:10:31;;;;;;;6.53;5.43;;;14.40;99.90;;;;;;5097618;28;20228;-92
2022/06/08 02:13:06;;;;;;;7.27;4.50;;;14.40;99.90;;;;;;5097665;28;20162;-92
2022/06/08 02:15:39;;;;;;;6.47;4.47;;;14.30;99.90;;;;;;5097600;28;20202;-92
2022/06/08 02:20:56;;;;;;;7.60;5.80;;;14.20;99.90;;;;;;5070535;28;20561;-76
2022/06/08 02:23:37;;;;;;;8.87;5.10;;;14.20;99.90;;;;;;5069110;28;20198;-75
2022/06/08 02:26:19;;;;;;;6.53;5.10;;;14.10;99.90;;;;;;5069233;28;20203;-76
2022/06/08 02:28:50;;;;;;;6.57;5.03;;;14.20;99.90;;;;;;5070964;28;20236;-76
2022/06/08 02:31:27;;;;;;;7.67;5.10;;;14.10;99.90;;;;;;5070936;28;20246;-76
2022/06/08 02:36:52;;;;;;;6.60;5.33;;;14.00;99.90;;;;;;5070606;28;20165;-76
2022/06/08 02:39:29;;;;;;;10.60;5.53;;;14.00;99.90;;;;;;5069915;28;20213;-76
2022/06/08 02:42:00;;;;;;;6.57;5.13;;;13.90;99.90;;;;;;5070466;28;20160;-76
2022/06/08 02:44:29;;;;;;;8.77;4.73;;;13.90;99.90;;;;;;5068788;28;20172;-76
2022/06/08 02:47:04;;;;;;;6.27;4.70;;;14.00;99.90;;;;;;5069960;28;20171;-76
2022/06/08 02:49:33;;;;;;;7.03;4.93;;;13.90;99.90;;;;;;5068567;28;20593;-76
2022/06/08 02:52:04;;;;;;;8.53;5.60;;;13.90;99.90;;;;;;5068507;28;20229;-76
2022/06/08 02:54:30;;;;;;;5.63;4.60;;;13.90;99.90;;;;;;5069706;28;20270;-76
2022/06/08 02:57:03;;;;;;;6.63;4.10;;;13.90;99.90;;;;;;5068430;28;20532;-76
2022/06/08 02:59:55;;;;;;;9.30;5.03;;;13.80;99.90;;;;;;5069651;28;20207;-76
2022/06/08 03:02:24;;;;;;;5.20;4.70;;;13.80;99.90;;;;;;5069635;28;20186;-76
2022/06/08 03:04:54;;;;;;;7.17;4.50;;;13.80;99.90;;;;;;5069790;28;20171;-76
2022/06/08 03:07:30;;;;;;;6.70;4.77;;;13.70;99.90;;;;;;5068263;28;20175;-76
2022/06/08 03:10:01;;;;;;;5.07;4.40;;;13.80;99.90;;;;;;5068122;28;20688;-76
2022/06/08 03:12:35;;;;;;;7.83;4.60;;;13.80;99.90;;;;;;5069481;28;20640;-76
2022/06/08 03:15:03;;;;;;;6.90;5.37;;;13.80;99.90;;;;;;5069370;28;20305;-76
2022/06/08 03:17:33;;;;;;;5.73;4.80;;;13.80;99.90;;;;;;5067929;28;20715;-76
2022/06/08 03:20:00;;;;;;;5.67;4.70;;;13.90;99.90;;;;;;5069066;28;20250;-76
2022/06/08 03:22:26;;;;;;;7.17;6.17;;;13.90;99.90;;;;;;5069077;28;20171;-76
2022/06/08 03:24:51;;;;;;;7.27;5.70;;;13.90;99.90;;;;;;5069376;28;20680;-76
2022/06/08 03:27:17;;;;;;;5.80;4.93;;;13.90;99.90;;;;;;5069000;28;20175;-76
2022/06/08 03:29:43;;;;;;;8.07;6.63;;;13.90;99.90;;;;;;5067865;28;20255;-76
2022/06/08 03:32:08;;;;;;;8.63;5.70;;;13.90;99.90;;;;;;5056359;28;20175;-80
2022/06/08 03:34:34;;;;;;;8.87;5.93;;;13.90;99.90;;;;;;5055769;28;20760;-76
2022/06/08 03:37:00;;;;;;;6.83;6.03;;;14.00;99.90;;;;;;5054541;28;20680;-76
2022/06/08 03:39:25;;;;;;;9.53;6.63;;;14.00;99.90;;;;;;5055726;28;20720;-76
2022/06/08 03:41:51;;;;;;;9.17;6.47;;;14.00;99.90;;;;;;5055900;28;20172;-76
2022/06/08 03:44:16;;;;;;;7.17;6.07;;;14.00;99.90;;;;;;5055522;28;20176;-76
2022/06/08 03:46:50;;;;;;;7.63;5.17;;;14.00;99.90;;;;;;5055796;28;20219;-76
2022/06/08 03:49:15;;;;;;;6.17;5.43;;;14.00;99.90;;;;;;5055542;28;20542;-76
2022/06/08 03:51:43;;;;;;;6.17;5.40;;;14.00;99.90;;;;;;5055650;28;20229;-76
2022/06/08 03:54:16;;;;;;;8.50;5.37;;;14.00;99.90;;;;;;5054162;28;20176;-76
2022/06/08 03:56:45;;;;;;;7.83;6.17;;;14.00;99.90;;;;;;5055472;28;20156;-76
2022/06/08 03:59:11;;;;;;;6.33;5.70;;;14.00;99.90;;;;;;5055154;28;20666;-76
2022/06/08 04:01:36;;;;;;;6.17;4.80;;;14.10;99.90;;;;;;5055503;28;20246;-76
2022/06/08 04:04:02;;;;;;;7.40;5.33;;;14.10;99.90;;;;;;5053825;28;20175;-76
2022/06/08 04:06:27;;;;;;;6.63;5.60;;;14.10;99.90;;;;;;5055097;28;20752;-76
2022/06/08 04:08:53;;;;;;;13.63;5.37;;;14.10;99.90;;;;;;5055009;28;20696;-76
2022/06/08 04:11:19;;;;;;;7.00;5.00;;;14.20;99.90;;;;;;5055250;28;20175;-76
2022/06/08 04:13:45;;;;;;;6.00;4.30;;;14.20;99.90;;;;;;5054973;28;20182;-76
2022/06/08 04:16:10;;;;;;;6.70;4.80;;;14.20;99.90;;;;;;5054967;28;20179;-76
2022/06/08 04:18:36;;;;;;;6.17;5.10;;;14.20;99.90;;;;;;5054871;28;20241;-76
2022/06/08 04:21:06;;;;;;;7.47;4.83;;;14.30;99.90;;;;;;5054906;28;20168;-76
2022/06/08 04:23:32;;;;;;;11.47;4.67;;;14.30;99.90;;;;;;5054946;28;20164;-76
2022/06/08 04:25:58;;;;;;;7.50;5.17;;;14.30;99.90;;;;;;5055040;28;20543;-76
2022/06/08 04:28:25;;;;;;;5.07;4.13;;;14.30;99.90;;;;;;5054960;28;20611;-76
2022/06/08 04:30:51;;;;;;;4.80;4.30;;;14.30;99.90;;;;;;5052199;28;20183;-76
2022/06/08 04:33:17;;;;;;;5.40;4.13;;;14.30;99.90;;;;;;5044565;28;20192;-76
2022/06/08 04:35:43;;;;;;;8.67;4.53;;;14.40;99.90;;;;;;5044578;28;20624;-76
2022/06/08 04:38:10;;;;;;;5.63;4.10;;;14.40;99.90;;;;;;5044335;28;20187;-76
2022/06/08 04:40:36;;;;;;;6.70;4.40;;;14.50;99.90;;;;;;5042216;28;20200;-76
2022/06/08 04:43:03;;;;;;;7.30;4.40;;;14.50;99.90;;;;;;5043202;28;20180;-76
2022/06/08 04:45:29;;;;;;;7.37;4.03;;;14.50;99.90;;;;;;5051436;28;20228;-76
2022/06/08 04:47:54;;;;;;;7.10;4.10;;;14.50;99.90;;;;;;5045268;28;20826;-76
2022/06/08 04:50:20;;;;;;;5.47;3.57;;;14.60;99.90;;;;;;5042814;28;20748;-76
2022/06/08 04:52:45;;;;;;;8.03;4.20;;;14.60;99.90;;;;;;5034925;28;20184;-75
2022/06/08 04:55:13;;;;;;;5.17;3.80;;;14.60;99.90;;;;;;5032171;28;20837;-76
2022/06/08 04:57:39;;;;;;;6.13;3.73;;;14.70;99.90;;;;;;5032036;28;20182;-76
2022/06/08 05:00:07;;;;;;;5.23;3.50;;;14.70;99.90;;;;;;5033346;28;20208;-75
2022/06/08 05:02:47;;;;;;;7.50;3.90;;;14.70;99.90;;;;;;5033644;28;20710;-75
2022/06/08 05:05:24;;;;;;;5.53;3.60;;;14.80;99.90;;;;;;5034400;28;20234;-75
2022/06/08 05:07:50;;;;;;;5.90;4.37;;;14.80;99.90;;;;;;5034328;28;20153;-75
2022/06/08 05:10:17;;;;;;;6.07;3.70;;;14.90;99.90;;;;;;5034164;28;20262;-75
2022/06/08 05:12:43;;;;;;;6.57;4.07;;;14.90;99.90;;;;;;5033942;28;20192;-75
2022/06/08 05:15:23;;;;;;;6.37;3.33;;;14.90;99.90;;;;;;5033945;28;20176;-75
2022/06/08 05:17:48;;;;;;;3.60;3.10;;;15.00;99.90;;;;;;5034240;28;20532;-75
2022/06/08 05:20:16;;;;;;;4.60;3.80;;;15.10;99.90;;;;;;5033586;28;20220;-76
2022/06/08 05:22:42;;;;;;;6.07;2.93;;;15.10;99.90;;;;;;5033789;28;20180;-75
2022/06/08 05:25:11;;;;;;;5.43;3.00;;;15.20;99.90;;;;;;5033682;28;20226;-74
2022/06/08 05:27:38;;;;;;;3.63;2.97;;;15.20;99.90;;;;;;5033665;28;20168;-75
2022/06/08 05:30:05;;;;;;;9.97;3.17;;;15.30;99.90;;;;;;5033621;28;20283;-75
2022/06/08 05:32:30;;;;;;;6.27;3.00;;;15.40;99.90;;;;;;5033663;28;20172;-75
2022/06/08 05:34:56;;;;;;;6.80;2.73;;;15.40;99.90;;;;;;5033708;28;20180;-75
2022/06/08 05:37:21;;;;;;;3.87;2.30;;;15.50;99.90;;;;;;5033559;28;20195;-75
2022/06/08 05:39:47;;;;;;;4.10;2.10;;;15.60;99.90;;;;;;5032217;28;20234;-75
2022/06/08 05:42:12;;;;;;;3.57;2.67;;;15.60;99.90;;;;;;5033610;28;20539;-75
2022/06/08 05:44:38;;;;;;;3.07;2.53;;;15.70;99.90;;;;;;5033658;28;20646;-75
2022/06/08 05:47:04;;;;;;;4.73;2.67;;;15.80;99.90;;;;;;5033629;28;20168;-74
2022/06/08 05:49:33;;;;;;;3.37;2.10;;;15.80;99.90;;;;;;5033312;28;20200;-74
2022/06/08 05:51:59;;;;;;;4.47;2.47;;;15.80;99.90;;;;;;5033407;28;20168;-75
2022/06/08 05:54:25;;;;;;;3.30;1.80;;;15.90;99.90;;;;;;5033283;28;20171;-74
2022/06/08 05:56:50;;;;;;;4.80;1.93;;;16.00;99.90;;;;;;5033221;28;20544;-74
2022/06/08 05:59:16;;;;;;;2.23;1.70;;;16.00;99.90;;;;;;5032993;28;20690;-74
2022/06/08 06:01:42;;;;;;;1.87;1.70;;;16.10;99.90;;;;;;5032498;28;20180;-75
2022/06/08 06:04:08;;;;;;;2.33;1.77;;;16.10;99.90;;;;;;5033394;28;20164;-75
2022/06/08 06:06:34;;;;;;;3.10;1.80;;;16.20;99.90;;;;;;5033085;28;20187;-75
2022/06/08 06:09:00;;;;;;;3.90;1.97;;;16.20;99.90;;;;;;5032953;28;20207;-75
2022/06/08 06:11:26;;;;;;;5.87;1.70;;;16.20;99.90;;;;;;5033292;28;20222;-75
2022/06/08 06:13:52;;;;;;;2.73;1.57;;;16.30;99.90;;;;;;5033026;28;20574;-75
2022/06/08 06:16:18;;;;;;;2.60;1.60;;;16.40;99.90;;;;;;5032998;28;20176;-75
2022/06/08 06:18:43;;;;;;;1.77;1.50;;;16.40;99.90;;;;;;5032780;28;20192;-75
2022/06/08 06:21:16;;;;;;;5.60;1.60;;;16.50;99.90;;;;;;5032990;28;20152;-76
2022/06/08 06:23:41;;;;;;;3.83;1.30;;;16.50;99.90;;;;;;5032933;28;20164;-75
2022/06/08 06:26:07;;;;;;;1.87;1.40;;;16.70;99.90;;;;;;5032977;28;20578;-75
2022/06/08 06:28:32;;;;;;;4.70;1.40;;;16.60;99.90;;;;;;5031606;28;20192;-75
2022/06/08 06:30:58;;;;;;;3.43;1.40;;;16.70;99.90;;;;;;5033263;28;20251;-75
2022/06/08 06:33:24;;;;;;;4.63;1.73;;;16.70;99.90;;;;;;5032839;28;20172;-75
2022/06/08 06:35:49;;;;;;;2.80;1.37;;;16.80;99.90;;;;;;5031541;28;20176;-75
2022/06/08 06:38:15;;;;;;;1.70;1.20;;;16.90;99.90;;;;;;5032752;28;20183;-75
2022/06/08 06:40:40;;;;;;;1.87;1.17;;;16.90;99.90;;;;;;5033260;28;20203;-75
2022/06/08 06:43:06;;;;;;;2.97;1.10;;;17.00;99.90;;;;;;5032809;28;20168;-75
2022/06/08 06:45:31;;;;;;;3.00;1.23;;;17.10;99.90;;;;;;5032742;28;20173;-75
2022/06/08 06:47:58;;;;;;;1.20;1.10;;;17.10;99.90;;;;;;5032706;28;20259;-76
2022/06/08 06:50:25;;;;;;;4.10;1.20;;;17.10;99.90;;;;;;5032655;28;20247;-75
2022/06/08 06:52:52;;;;;;;1.37;1.23;;;17.20;99.90;;;;;;5032974;28;20264;-75
2022/06/08 06:55:24;;;;;;;3.43;1.53;;;17.20;99.90;;;;;;5031429;28;20180;-75
2022/06/08 06:57:50;;;;;;;2.40;1.43;;;17.30;99.90;;;;;;5032707;28;20183;-75
2022/06/08 07:00:18;;;;;;;2.07;1.50;;;17.40;99.90;;;;;;5032419;28;20248;-75
2022/06/08 07:02:44;;;;;;;3.40;1.23;;;17.50;99.90;;;;;;5033170;28;20175;-75
2022/06/08 07:05:22;;;;;;;2.33;1.30;;;17.50;99.90;;;;;;5032580;28;20248;-75
2022/06/08 07:07:48;;;;;;;1.47;1.10;;;17.50;99.90;;;;;;5036569;28;20175;-75
2022/06/08 07:10:14;;;;;;;3.17;1.10;;;17.60;99.90;;;;;;5036214;28;20192;-75
2022/06/08 07:12:40;;;;;;;2.43;0.80;;;17.60;99.90;;;;;;5034951;28;20222;-76
2022/06/08 07:15:07;;;;;;;1.33;1.03;;;17.70;99.90;;;;;;5034920;28;20651;-75
2022/06/08 07:17:33;;;;;;;2.27;0.90;;;17.70;99.90;;;;;;5036289;28;20169;-75
2022/06/08 07:19:58;;;;;;;4.13;0.93;;;17.80;99.90;;;;;;5051361;23;20217;-77
2022/06/08 07:22:24;;;;;;;2.47;1.07;;;17.90;99.90;;;;;;5037058;28;20181;-77
2022/06/08 07:24:49;;;;;;;1.20;0.93;;;17.90;99.90;;;;;;5036647;28;20164;-77
2022/06/08 07:27:16;;;;;;;3.40;1.50;;;18.00;99.90;;;;;;5018639;28;20168;-77
2022/06/08 07:29:42;;;;;;;1.00;0.90;;;18.00;99.90;;;;;;5036330;28;20168;-78
2022/06/08 07:32:08;;;;;;;2.07;0.93;;;18.00;99.90;;;;;;5036440;28;20259;-78
2022/06/08 07:34:33;;;;;;;3.10;1.00;;;18.10;99.90;;;;;;5036269;28;20172;-77
2022/06/08 07:37:00;;;;;;;2.20;0.90;;;18.20;99.90;;;;;;5036208;28;20176;-77
2022/06/08 07:39:26;;;;;;;2.03;0.90;;;18.20;99.90;;;;;;5036265;28;20231;-78
2022/06/08 07:41:52;;;;;;;1.50;1.17;;;18.20;99.90;;;;;;5018308;28;20688;-78
2022/06/08 07:44:18;;;;;;;1.37;1.00;;;18.20;99.90;;;;;;5036214;28;20172;-77
2022/06/08 07:46:45;;;;;;;2.03;0.97;;;18.30;99.90;;;;;;5018573;28;20168;-77
2022/06/08 07:51:57;;;;;;;3.90;1.00;;;18.30;99.90;;;;;;5036354;28;20599;-78
2022/06/08 07:54:25;;;;;;;1.33;1.00;;;18.30;99.90;;;;;;5018877;28;20176;-78
2022/06/08 07:56:51;;;;;;;1.80;1.20;;;18.40;99.90;;;;;;5035873;28;20180;-78
2022/06/08 07:59:18;;;;;;;2.83;0.80;;;18.40;99.90;;;;;;5017863;28;20204;-78
2022/06/08 08:01:44;;;;;;;1.90;1.10;;;18.40;99.90;;;;;;5017942;28;20192;-77
2022/06/08 08:04:09;;;;;;;1.40;1.00;;;18.40;99.90;;;;;;5036407;28;20173;-78
2022/06/08 08:06:35;;;;;;;2.17;1.20;;;18.50;99.90;;;;;;5035597;28;20179;-78
2022/06/08 08:09:01;;;;;;;1.73;1.10;;;18.50;99.90;;;;;;5035869;28;20523;-78
2022/06/08 08:11:27;;;;;;;1.53;1.00;;;18.50;99.90;;;;;;5035509;28;20696;-78
2022/06/08 08:13:53;;;;;;;1.60;1.07;;;18.60;99.90;;;;;;5017919;28;20223;-77
2022/06/08 08:16:18;;;;;;;3.43;1.03;;;18.60;99.90;;;;;;5035467;28;20255;-78
2022/06/08 08:18:44;;;;;;;1.53;1.13;;;18.50;99.90;;;;;;5018050;28;20215;-77
2022/06/08 08:21:10;;;;;;;3.27;1.00;;;18.60;99.90;;;;;;5017964;28;20261;-78
2022/06/08 08:23:36;;;;;;;1.47;1.00;;;18.60;99.90;;;;;;5017632;28;20176;-77
2022/06/08 08:26:01;;;;;;;1.43;1.00;;;18.70;99.90;;;;;;5017498;28;20183;-78
2022/06/08 08:28:28;;;;;;;1.50;1.00;;;18.80;99.90;;;;;;5017495;28;20172;-77
2022/06/08 08:30:54;;;;;;;1.23;0.93;;;18.80;99.90;;;;;;5035375;28;20223;-78
2022/06/08 08:33:19;;;;;;;3.47;1.13;;;18.90;99.90;;;;;;5017561;28;20199;-78
2022/06/08 08:35:45;;;;;;;1.87;1.30;;;19.00;99.90;;;;;;5036072;28;20673;-78
2022/06/08 08:38:10;;;;;;;2.80;1.40;;;19.00;99.90;;;;;;5035810;28;20255;-78
2022/06/08 08:40:44;;;;;;;2.07;1.17;;;19.00;99.90;;;;;;5017846;28;20722;-78
2022/06/08 08:43:15;;;;;;;2.70;1.20;;;19.10;99.90;;;;;;5017952;28;20168;-78
2022/06/08 08:45:52;;;;;;;5.47;1.40;;;19.20;99.90;;;;;;5018918;28;20160;-78
2022/06/08 08:48:28;;;;;;;3.23;1.20;;;19.20;99.90;;;;;;5037005;28;20187;-78
2022/06/08 08:50:56;;;;;;;2.47;1.30;;;19.30;99.90;;;;;;5036890;28;20192;-78
2022/06/08 08:53:26;;;;;;;1.73;1.13;;;19.40;99.90;;;;;;5047384;28;20172;-78
2022/06/08 08:56:03;;;;;;;2.57;1.57;;;19.50;99.90;;;;;;5048722;28;20244;-77
2022/06/08 08:58:34;;;;;;;3.03;1.63;;;19.70;99.90;;;;;;5035437;28;20157;-78
2022/06/08 09:01:20;;;;;;;3.27;1.70;;;19.80;99.90;;;;;;5035030;28;20212;-78
2022/06/08 09:04:00;;;;;;;3.83;1.60;;;19.90;99.90;;;;;;5035508;28;20498;-78
2022/06/08 09:06:31;;;;;;;1.97;1.40;;;20.00;99.90;;;;;;5035231;28;20227;-78
2022/06/08 09:09:02;;;;;;;3.47;1.60;;;20.20;99.90;;;;;;5035129;28;20173;-78
2022/06/08 09:11:34;;;;;;;5.60;1.60;;;20.30;99.90;;;;;;5035415;28;20211;-78
2022/06/08 09:14:08;;;;;;;5.20;1.83;;;20.40;99.90;;;;;;5017608;28;20173;-78
2022/06/08 09:16:43;;;;;;;3.30;1.60;;;20.50;92.00;;;;;;5034944;28;20160;-78
2022/06/08 09:19:21;;;;;;;2.87;1.50;;;20.50;1.00;;;;;;5035113;28;20192;-77
2022/06/08 09:21:47;;;;;;;2.50;1.53;;;20.70;1.00;;;;;;5034868;28;20200;-78
2022/06/08 09:24:48;;;;;;;2.63;1.20;;;20.80;1.00;;;;;;5035062;28;20634;-78
2022/06/08 09:27:27;;;;;;;3.43;1.10;;;20.90;1.00;;;;;;5034625;28;20215;-78
2022/06/08 09:30:02;;;;;;;3.33;1.10;;;21.00;1.00;;;;;;5034393;28;20160;-78
2022/06/08 09:32:44;;;;;;;2.73;1.60;;;21.10;99.90;;;;;;5034400;28;20646;-78
2022/06/08 09:35:19;;;;;;;1.93;1.27;;;21.30;1.00;;;;;;5034670;28;20187;-78
2022/06/08 09:37:46;;;;;;;7.83;2.70;;;21.30;1.00;;;;;;5034793;28;20225;-78
2022/06/08 09:40:36;;;;;;;2.43;1.43;;;21.30;1.00;;;;;;5035013;28;20204;-78
2022/06/08 09:43:18;;;;;;;3.30;1.20;;;21.40;99.90;;;;;;5017190;28;20203;-78
2022/06/08 09:46:19;;;;;;;4.13;1.13;;;21.40;1.00;;;;;;5034825;28;20167;-78
2022/06/08 09:52:04;;;;;;;4.73;1.10;;;21.60;23.80;;;;;;5034774;28;20194;-78
2022/06/08 09:55:03;;;;;;;1.80;0.90;;;21.50;1.00;;;;;;5034441;28;20215;-78
2022/06/08 09:58:04;;;;;;;13.23;1.53;;;21.50;1.00;;;;;;5016571;28;20175;-78
2022/06/08 10:00:34;;;;;;;2.67;1.57;;;21.30;1.00;;;;;;5033862;28;20720;-78
2022/06/08 10:03:22;;;;;;;4.70;1.40;;;21.40;99.90;;;;;;5034399;28;20661;-78
2022/06/08 10:06:35;;;;;;;3.37;1.30;;;21.40;1.00;;;;;;5033895;28;20160;-78
2022/06/08 10:09:29;;;;;;;5.10;1.67;;;21.50;99.90;;;;;;4938135;29;20676;-78
2022/06/08 10:12:14;;;;;;;2.77;1.13;;;21.60;1.00;;;;;;5034187;28;20246;-78
2022/06/08 10:14:49;;;;;;;4.70;1.23;;;21.60;99.90;;;;;;5034530;28;20157;-78
2022/06/08 10:17:27;;;;;;;4.07;1.37;;;21.70;1.00;;;;;;5034346;28;20239;-77
2022/06/08 10:20:01;;;;;;;2.17;1.23;;;21.70;99.90;;;;;;5034186;28;20273;-78
2022/06/08 10:22:34;;;;;;;3.43;1.10;;;21.70;99.90;;;;;;5034089;28;20176;-78
2022/06/08 10:25:30;;;;;;;6.03;1.20;;;21.70;99.90;;;;;;5016273;28;20175;-78
2022/06/08 10:28:07;;;;;;;4.07;1.23;;;21.60;52.60;;;;;;5033847;28;20153;-78
2022/06/08 10:30:43;;;;;;;6.13;1.30;;;21.60;1.00;;;;;;5034395;28;20658;-78
2022/06/08 10:33:19;;;;;;;3.63;1.50;;;21.50;1.00;;;;;;5015908;28;20225;-78
2022/06/08 10:35:52;;;;;;;3.27;1.20;;;21.40;1.00;;;;;;5015963;28;20176;-78
2022/06/08 10:38:22;;;;;;;7.57;1.23;;;21.40;1.00;;;;;;5034032;28;20167;-78
2022/06/08 10:41:02;;;;;;;7.50;1.50;;;21.10;99.90;;;;;;5016710;28;20204;-77
2022/06/08 10:43:34;;;;;;;5.93;1.40;;;20.80;1.00;;;;;;5020483;28;20160;-78
2022/06/08 10:46:05;;;;;;;3.13;1.00;;;20.70;1.00;;;;;;5020044;28;20192;-78
2022/06/08 10:48:46;;;;;;;4.53;1.77;;;20.30;99.90;;;;;;5037595;28;20657;-78
2022/06/08 10:51:12;;;;;;;12.73;2.93;;;20.10;1.00;;;;;;5037416;28;20191;-78
2022/06/08 10:56:44;;;;;;;9.13;2.33;;;19.30;99.90;;;;;;5038155;28;20191;-78
2022/06/08 10:59:15;;;;;;;6.57;2.37;;;18.90;99.90;;;;;;5019690;28;20202;-78
2022/06/08 11:01:50;;;;;;;9.97;2.00;;;18.80;99.90;;;;;;5037540;28;20192;-78
2022/06/08 11:04:30;;;;;;;7.00;2.77;;;18.60;99.90;;;;;;5019276;28;20180;-78
2022/06/08 11:06:58;;;;;;;7.50;2.10;;;18.50;99.90;;;;;;5019618;28;20176;-77
2022/06/08 11:09:35;;;;;;;11.00;2.43;;;18.30;99.90;;;;;;5019325;28;20180;-77
2022/06/08 11:12:13;;;;;;;6.07;2.30;;;18.20;99.90;;;;;;5036933;28;20175;-78
2022/06/08 11:15:11;;;;;;;6.67;2.23;;;18.20;99.90;;;;;;5019392;28;20261;-77
2022/06/08 11:17:54;;;;;;;5.93;2.17;;;18.20;99.90;;;;;;5036509;28;20542;-78
2022/06/08 11:20:29;;;;;;;7.73;2.47;;;18.20;99.90;;;;;;5036385;28;20678;-77
2022/06/08 11:23:32;;;;;;;8.10;2.73;;;18.20;99.90;;;;;;5018834;28;20175;-78
2022/06/08 11:26:04;;;;;;;7.57;2.43;;;18.20;99.90;;;;;;5039165;28;20187;-77
2022/06/08 11:28:39;;;;;;;6.60;2.43;;;18.20;99.90;;;;;;5047238;28;20165;-78
2022/06/08 11:31:32;;;;;;;7.30;2.40;;;18.20;99.90;;;;;;5036768;28;20250;-78
2022/06/08 11:34:26;;;;;;;10.00;2.60;;;18.20;99.90;;;;;;4999739;28;20207;-77
2022/06/08 11:36:58;;;;;;;6.83;3.27;;;18.20;99.90;;;;;;5036883;28;20168;-77
2022/06/08 11:39:39;;;;;;;7.30;2.67;;;18.20;99.90;;;;;;5036359;28;20184;-78
2022/06/08 11:42:24;;;;;;;12.57;3.20;;;18.20;99.90;;;;;;5036640;28;20202;-75
2022/06/08 11:44:57;;;;;;;9.13;2.77;;;18.10;99.90;;;;;;5036386;28;20662;-77
2022/06/08 11:47:29;;;;;;;7.90;2.40;;;17.90;99.90;;;;;;5018517;28;20164;-78
2022/06/08 11:50:00;;;;;;;7.47;2.73;;;17.90;99.90;;;;;;5018212;28;20200;-77
2022/06/08 11:52:35;;;;;;;9.30;2.50;;;17.80;99.90;;;;;;5035515;28;20214;-77
2022/06/08 11:55:04;;;;;;;11.87;3.00;;;17.70;99.90;;;;;;5035960;28;20190;-78
2022/06/08 11:57:32;;;;;;;9.53;2.33;;;17.70;99.90;;;;;;5035806;28;20164;-78
2022/06/08 11:59:59;;;;;;;5.60;2.47;;;17.60;99.90;;;;;;5035446;28;20212;-77
2022/06/08 12:02:35;;;;;;;8.30;2.80;;;17.70;99.90;;;;;;5036085;28;20507;-78
2022/06/08 12:05:03;;;;;;;6.80;2.73;;;17.60;99.90;;;;;;5035607;28;20529;-78
2022/06/08 12:07:46;;;;;;;4.83;2.37;;;17.60;99.90;;;;;;5035937;28;20160;-78
2022/06/08 12:10:18;;;;;;;6.37;2.23;;;17.50;99.90;;;;;;5018153;28;20263;-78
2022/06/08 12:12:44;;;;;;;4.73;1.93;;;17.60;99.90;;;;;;5017943;28;20223;-77
2022/06/08 12:15:44;;;;;;;8.00;2.30;;;17.50;99.90;;;;;;5017742;28;20230;-78
2022/06/08 12:18:24;;;;;;;6.50;2.60;;;17.60;99.90;;;;;;5035904;28;20716;-78
2022/06/08 12:21:03;;;;;;;5.50;2.50;;;17.60;99.90;;;;;;5035524;28;20211;-78
2022/06/08 12:23:44;;;;;;;11.80;2.70;;;17.60;99.90;;;;;;5018023;28;20191;-77
2022/06/08 12:26:21;;;;;;;8.83;2.40;;;17.50;99.90;;;;;;5017721;28;20187;-78
2022/06/08 12:29:00;;;;;;;6.20;3.00;;;17.50;99.90;;;;;;5017825;28;20172;-77
2022/06/08 12:31:29;;;;;;;7.87;2.83;;;17.60;99.90;;;;;;5035524;28;20184;-78
2022/06/08 12:33:54;;;;;;;8.07;2.73;;;17.50;99.90;;;;;;5017780;28;20658;-78
2022/06/08 12:36:28;;;;;;;9.27;3.67;;;17.60;99.90;;;;;;5035325;28;20168;-77
2022/06/08 12:39:18;;;;;;;7.73;2.97;;;17.60;99.90;;;;;;5035443;28;20646;-76
2022/06/08 12:41:47;;;;;;;6.40;2.90;;;17.60;99.90;;;;;;5035143;28;20351;-76
2022/06/08 12:44:24;;;;;;;7.13;2.80;;;17.60;99.90;;;;;;5016210;28;20222;-78
2022/06/08 12:47:35;;;;;;;9.40;2.53;;;17.60;99.90;;;;;;5035076;28;20235;-77
2022/06/08 12:50:13;;;;;;;9.50;2.40;;;17.70;99.90;;;;;;4975436;28;20223;-77
2022/06/08 12:52:39;;;;;;;9.83;3.03;;;17.70;99.90;;;;;;5017146;28;20182;-77
2022/06/08 12:55:15;;;;;;;8.53;3.10;;;17.70;99.90;;;;;;5034860;28;20165;-76
2022/06/08 12:57:42;;;;;;;5.77;2.87;;;17.70;99.90;;;;;;5034750;28;20179;-77
2022/06/08 13:00:11;;;;;;;7.03;2.93;;;17.70;99.90;;;;;;5034862;28;20262;-76
2022/06/08 13:02:39;;;;;;;7.30;2.93;;;17.80;99.90;;;;;;5016725;28;20271;-78
2022/06/08 13:05:17;;;;;;;6.53;2.97;;;17.80;99.90;;;;;;5034270;28;20168;-77
2022/06/08 13:07:44;;;;;;;7.33;2.97;;;17.80;99.90;;;;;;5017153;28;20164;-76
2022/06/08 13:10:10;;;;;;;9.40;2.63;;;17.80;99.90;;;;;;5034620;28;20549;-78
2022/06/08 13:12:47;;;;;;;8.37;2.67;;;17.90;99.90;;;;;;5034998;28;20252;-77
2022/06/08 13:15:19;;;;;;;5.57;2.47;;;17.90;99.90;;;;;;5034871;28;20610;-77
2022/06/08 13:17:45;;;;;;;6.23;2.73;;;17.90;99.90;;;;;;5034622;28;20168;-77
2022/06/08 13:20:19;;;;;;;6.37;2.73;;;17.90;99.90;;;;;;5016482;28;20575;-78
2022/06/08 13:22:45;;;;;;;10.73;2.30;;;18.00;99.90;;;;;;5017179;28;20172;-77
2022/06/08 13:25:16;;;;;;;7.40;2.40;;;18.00;99.90;;;;;;5016693;28;20172;-77
2022/06/08 13:27:43;;;;;;;6.43;2.33;;;18.00;99.90;;;;;;5016746;28;20196;-78